createdAt,value
2023-01-23T00:01:11.868Z,18.27
2023-01-23T00:03:38.809Z,17.25
2023-01-23T00:06:08.859Z,17.45
2023-01-23T00:08:36.253Z,15.27
2023-01-23T00:11:08.068Z,15.75
2023-01-23T00:13:36.389Z,12.32
2023-01-23T00:16:07.702Z,16.55
2023-01-23T00:18:34.610Z,14.88
2023-01-23T00:21:10.342Z,15.73
2023-01-23T00:23:37.449Z,17.45
2023-01-23T00:26:11.232Z,16.27
2023-01-23T00:28:38.085Z,14.35
2023-01-23T00:31:07.148Z,15.80
2023-01-23T00:33:34.126Z,15.15
2023-01-23T00:36:01.820Z,14.20
2023-01-23T00:38:28.661Z,13.20
2023-01-23T00:40:56.428Z,12.27
2023-01-23T00:43:24.483Z,14.70
2023-01-23T00:45:51.977Z,15.48
2023-01-23T00:48:18.868Z,13.48
2023-01-23T00:50:46.446Z,12.93
2023-01-23T00:53:13.265Z,12.20
2023-01-23T00:55:40.833Z,12.73
2023-01-23T00:58:08.507Z,11.52
2023-01-23T05:00:53.839Z,7.50
2023-01-23T05:03:20.656Z,6.88
2023-01-23T05:05:48.077Z,5.88
2023-01-23T05:08:14.949Z,6.72
2023-01-23T05:10:41.734Z,5.85
2023-01-23T05:13:10.334Z,6.85
2023-01-23T05:15:37.167Z,5.72
2023-01-23T05:18:04.100Z,6.35
2023-01-23T05:20:30.887Z,6.07
2023-01-23T05:22:58.622Z,5.32
2023-01-23T05:25:27.979Z,6.50
2023-01-23T05:27:54.982Z,5.85
2023-01-23T05:30:23.126Z,6.22
2023-01-23T05:32:49.985Z,6.03
2023-01-23T05:35:17.664Z,6.43
2023-01-23T05:37:48.920Z,6.20
2023-01-23T05:40:15.748Z,6.18
2023-01-23T05:42:42.466Z,7.72
2023-01-23T05:45:09.630Z,5.47
2023-01-23T05:47:36.870Z,6.10
2023-01-23T05:50:04.636Z,7.95
2023-01-23T05:52:31.600Z,6.90
2023-01-23T05:54:58.309Z,7.78
2023-01-23T05:57:25.083Z,7.43
2023-01-23T05:59:51.841Z,5.95
2023-01-23T06:02:18.626Z,6.65
2023-01-23T06:04:48.530Z,7.13
2023-01-23T06:07:17.348Z,5.20
2023-01-23T06:09:44.700Z,6.25
2023-01-23T06:12:11.664Z,5.57
2023-01-23T06:14:39.077Z,5.53
2023-01-23T06:17:06.636Z,5.55
2023-01-23T06:19:33.524Z,6.82
2023-01-23T06:22:00.424Z,5.72
2023-01-23T06:24:27.208Z,5.05
2023-01-23T06:26:54.047Z,5.18
2023-01-23T06:29:21.155Z,5.70
2023-01-23T06:31:49.529Z,5.43
2023-01-23T06:34:16.550Z,6.45
2023-01-23T06:36:43.322Z,5.22
2023-01-23T06:39:13.419Z,5.53
2023-01-23T06:41:40.289Z,6.03
2023-01-23T06:44:07.807Z,5.85
2023-01-23T06:46:35.151Z,5.50
2023-01-23T06:49:04.555Z,5.97
2023-01-23T06:51:33.749Z,6.22
2023-01-23T06:54:00.810Z,6.45
2023-01-23T06:56:27.801Z,6.70
2023-01-23T06:58:54.603Z,7.80
2023-01-23T07:01:21.538Z,7.78
2023-01-23T07:03:48.551Z,7.57
2023-01-23T07:06:16.455Z,8.32
2023-01-23T07:08:43.235Z,6.90
2023-01-23T07:11:10.431Z,5.03
2023-01-23T07:13:37.152Z,8.15
2023-01-23T07:16:04.306Z,7.25
2023-01-23T07:18:32.570Z,7.22
2023-01-23T07:21:00.772Z,8.05
2023-01-23T07:23:27.544Z,7.85
2023-01-23T07:26:00.546Z,8.13
2023-01-23T07:28:27.653Z,8.07
2023-01-23T07:30:54.443Z,7.80
2023-01-23T07:33:21.511Z,8.93
2023-01-23T07:35:48.347Z,7.75
2023-01-23T07:38:15.244Z,9.98
2023-01-23T07:40:43.984Z,8.45
2023-01-23T07:43:11.576Z,8.68
2023-01-23T07:45:38.953Z,9.68
2023-01-23T07:48:05.788Z,8.15
2023-01-23T07:50:32.552Z,10.40
2023-01-23T07:52:59.292Z,7.40
2023-01-23T07:55:26.059Z,10.35
2023-01-23T07:57:52.922Z,9.25
2023-01-23T08:00:21.694Z,10.30
2023-01-23T08:02:49.597Z,10.02
2023-01-23T08:05:16.444Z,11.38
2023-01-23T08:07:43.319Z,14.00
2023-01-23T08:10:10.931Z,11.05
2023-01-23T08:12:37.694Z,12.65
2023-01-23T08:15:05.027Z,14.15
2023-01-23T08:17:31.797Z,13.18
2023-01-23T08:19:58.481Z,12.52
2023-01-23T08:22:25.179Z,13.98
2023-01-23T08:24:51.851Z,15.63
2023-01-23T08:27:22.259Z,16.38
2023-01-23T08:29:49.068Z,17.00
2023-01-23T08:32:15.781Z,15.93
2023-01-23T08:34:42.480Z,14.60
2023-01-23T08:37:09.267Z,14.93
2023-01-23T08:39:36.050Z,14.20
2023-01-23T08:42:02.785Z,12.27
2023-01-23T08:44:31.224Z,13.48
2023-01-23T08:46:57.917Z,12.48
2023-01-23T08:49:24.683Z,12.63
2023-01-23T08:51:51.411Z,10.93
2023-01-23T08:54:18.143Z,11.57
2023-01-23T08:56:44.913Z,11.18
2023-01-23T08:59:11.792Z,11.65
2023-01-23T09:01:38.551Z,10.77
2023-01-23T09:04:05.514Z,10.40
2023-01-23T09:06:32.197Z,11.85
2023-01-23T09:08:58.937Z,11.20
2023-01-23T09:11:25.953Z,12.52
2023-01-23T09:13:54.082Z,12.15
2023-01-23T09:16:21.041Z,14.13
2023-01-23T09:18:48.415Z,11.68
2023-01-23T09:21:17.146Z,12.20
2023-01-23T09:23:44.006Z,12.77
2023-01-23T09:26:12.800Z,11.82
2023-01-23T09:28:42.685Z,13.52
2023-01-23T09:31:14.423Z,11.40
2023-01-23T09:33:41.580Z,11.60
2023-01-23T09:36:09.036Z,13.63
2023-01-23T09:38:36.250Z,11.65
2023-01-23T09:41:19.263Z,13.55
2023-01-23T09:44:07.424Z,12.70
2023-01-23T09:46:44.240Z,12.93
2023-01-23T09:49:14.135Z,11.75
2023-01-23T09:52:11.237Z,10.48
2023-01-23T09:54:46.885Z,12.40
2023-01-23T09:57:23.837Z,14.07
2023-01-23T10:00:03.288Z,14.55
2023-01-23T10:02:30.441Z,14.27
2023-01-23T10:04:58.537Z,15.57
2023-01-23T10:07:43.879Z,17.02
2023-01-23T10:10:38.240Z,17.67
2023-01-23T10:13:11.877Z,18.35
2023-01-23T10:16:03.452Z,19.05
2023-01-23T10:19:07.860Z,19.85
2023-01-23T10:21:43.871Z,20.00
2023-01-23T10:24:38.030Z,18.95
2023-01-23T10:27:31.159Z,19.48
2023-01-23T10:30:02.978Z,17.60
2023-01-23T10:32:44.137Z,14.23
2023-01-23T10:35:37.184Z,17.17
2023-01-23T10:38:58.375Z,19.05
2023-01-23T10:41:25.247Z,17.48
2023-01-23T10:43:54.471Z,18.25
2023-01-23T10:46:28.977Z,15.00
2023-01-23T10:48:55.759Z,18.77
2023-01-23T10:51:35.852Z,18.13
2023-01-23T10:54:16.972Z,19.85
2023-01-23T10:57:23.590Z,19.92
2023-01-23T11:00:04.138Z,20.02
2023-01-23T11:02:34.212Z,22.60
2023-01-23T11:05:02.127Z,21.48
2023-01-23T11:07:36.813Z,19.40
2023-01-23T11:10:09.484Z,20.10
2023-01-23T11:12:48.625Z,19.67
2023-01-23T11:15:31.157Z,23.52
2023-01-23T11:20:33.404Z,20.73
2023-01-23T11:23:05.468Z,22.98
2023-01-23T11:25:36.335Z,19.77
2023-01-23T11:28:27.534Z,18.60
2023-01-23T11:31:15.687Z,18.40
2023-01-23T11:33:51.801Z,17.48
2023-01-23T11:36:18.511Z,20.23
2023-01-23T11:39:00.445Z,16.77
2023-01-23T11:41:33.742Z,18.40
2023-01-23T11:44:08.065Z,15.93
2023-01-23T11:46:55.689Z,18.98
2023-01-23T11:49:35.287Z,16.42
2023-01-23T11:52:08.156Z,19.45
2023-01-23T11:55:11.770Z,19.23
2023-01-23T11:57:57.014Z,16.90
2023-01-23T12:00:34.803Z,18.58
2023-01-23T12:03:13.565Z,18.13
2023-01-23T12:09:16.755Z,19.17
2023-01-23T12:11:58.629Z,17.67
2023-01-23T12:14:30.837Z,18.63
2023-01-23T12:17:09.132Z,18.92
2023-01-23T12:19:35.793Z,17.70
2023-01-23T12:22:21.023Z,16.75
2023-01-23T12:25:20.216Z,16.35
2023-01-23T12:27:57.873Z,18.92
2023-01-23T12:30:44.303Z,18.25
2023-01-23T12:33:48.009Z,17.40
2023-01-23T12:36:24.847Z,19.50
2023-01-23T12:39:29.297Z,18.90
2023-01-23T12:42:22.711Z,18.83
2023-01-23T12:45:11.014Z,16.50
2023-01-23T12:48:07.972Z,12.73
2023-01-23T12:50:40.509Z,16.13
2023-01-23T12:53:12.425Z,16.40
2023-01-23T12:55:57.201Z,15.50
2023-01-23T12:58:27.843Z,16.23
2023-01-23T13:01:28.326Z,15.52
2023-01-23T13:04:12.830Z,16.25
2023-01-23T13:06:59.131Z,14.30
2023-01-23T13:09:50.928Z,14.45
2023-01-23T13:12:26.230Z,13.27
2023-01-23T13:15:22.725Z,14.45
2023-01-23T13:17:57.537Z,12.60
2023-01-23T13:20:48.447Z,14.60
2023-01-23T13:23:36.652Z,12.23
2023-01-23T13:26:15.732Z,11.80
2023-01-23T13:28:50.251Z,10.23
2023-01-23T13:31:40.551Z,8.43
2023-01-23T13:34:16.366Z,9.15
2023-01-23T13:36:45.128Z,7.50
2023-01-23T13:39:17.983Z,9.35
2023-01-23T13:41:46.462Z,9.57
2023-01-23T13:44:41.968Z,6.25
2023-01-23T14:22:11.432Z,3.42
2023-01-23T14:24:44.787Z,4.03
2023-01-23T14:27:28.897Z,3.97
2023-01-23T14:30:15.033Z,4.00
2023-01-23T14:32:41.866Z,4.07
2023-01-23T14:35:27.798Z,3.75
2023-01-23T14:37:58.150Z,3.78
2023-01-23T14:40:28.726Z,3.30
2023-01-23T14:45:33.187Z,3.90
2023-01-23T14:48:07.110Z,3.45
2023-01-23T14:50:34.735Z,3.35
2023-01-23T14:53:07.752Z,5.25
2023-01-23T14:55:40.772Z,3.00
2023-01-23T14:58:12.440Z,3.42
2023-01-23T15:00:41.761Z,3.50
2023-01-23T15:03:12.670Z,3.47
2023-01-23T15:05:41.014Z,4.25
2023-01-23T15:08:32.314Z,4.35
2023-01-23T15:11:01.817Z,4.70
2023-01-23T15:13:51.124Z,4.35
2023-01-23T15:16:24.710Z,4.80
2023-01-23T15:19:19.119Z,6.40
2023-01-23T15:21:45.880Z,3.65
2023-01-23T15:24:12.587Z,4.05
2023-01-23T15:26:58.642Z,3.90
2023-01-23T15:29:27.019Z,5.32
2023-01-23T15:31:55.105Z,5.30
2023-01-23T15:34:22.736Z,3.63
2023-01-23T15:36:58.792Z,6.25
2023-01-23T15:39:48.073Z,4.68
2023-01-23T15:42:14.744Z,3.90
2023-01-23T15:44:42.984Z,4.35
2023-01-23T15:47:09.807Z,4.60
2023-01-23T15:49:38.501Z,4.45
2023-01-23T15:52:26.986Z,4.68
2023-01-23T15:55:05.441Z,4.22
2023-01-23T15:57:32.232Z,4.13
2023-01-23T16:00:00.311Z,4.30
2023-01-23T16:02:32.998Z,5.32
2023-01-23T16:05:01.823Z,4.53
2023-01-23T16:07:38.445Z,5.22
2023-01-23T16:10:16.594Z,5.72
2023-01-23T16:12:44.158Z,4.47
2023-01-23T16:15:16.772Z,5.55
2023-01-23T16:17:43.881Z,4.82
2023-01-23T16:20:26.759Z,5.55
2023-01-23T16:22:56.706Z,4.80
2023-01-23T16:25:43.752Z,5.20
2023-01-23T16:28:20.005Z,4.20
2023-01-23T16:30:47.580Z,4.63
2023-01-23T16:33:14.711Z,5.22
2023-01-23T16:35:42.107Z,3.95
2023-01-23T16:38:19.621Z,5.00
2023-01-23T16:40:46.353Z,3.85
2023-01-23T16:43:13.158Z,4.88
2023-01-23T16:45:39.864Z,5.13
2023-01-23T16:48:09.190Z,5.88
2023-01-23T16:50:42.456Z,4.28
2023-01-23T16:53:26.881Z,4.83
2023-01-23T16:55:58.547Z,4.05
2023-01-23T16:58:28.794Z,4.18
2023-01-23T17:01:01.344Z,5.15
2023-01-23T17:03:33.783Z,4.30
2023-01-23T17:08:27.629Z,4.93
2023-01-23T17:11:01.597Z,6.20
2023-01-23T17:13:33.476Z,4.82
2023-01-23T17:16:00.984Z,4.32
2023-01-23T17:18:31.400Z,4.03
2023-01-23T17:20:58.551Z,6.00
2023-01-23T17:23:25.679Z,5.10
2023-01-23T17:26:00.479Z,4.22
2023-01-23T17:28:28.657Z,4.38
2023-01-23T17:30:58.100Z,3.67
2023-01-23T17:33:27.723Z,4.40
2023-01-23T17:35:54.609Z,3.72
2023-01-23T17:38:24.806Z,4.75
2023-01-23T17:40:52.202Z,4.95
2023-01-23T17:43:20.356Z,4.57
2023-01-23T17:45:50.163Z,5.43
2023-01-23T17:48:27.279Z,4.97
2023-01-23T17:50:54.306Z,4.30
2023-01-23T17:53:21.463Z,5.00
2023-01-23T17:55:52.665Z,4.50
2023-01-23T17:58:20.387Z,5.00
2023-01-23T18:00:50.657Z,5.45
2023-01-23T18:03:21.648Z,4.85
2023-01-23T18:05:48.977Z,5.47
2023-01-23T18:08:18.270Z,5.25
2023-01-23T18:10:47.804Z,5.20
2023-01-23T18:13:20.440Z,5.47
2023-01-23T18:18:23.328Z,5.07
2023-01-23T18:20:54.546Z,5.10
2023-01-23T18:23:26.206Z,4.47
2023-01-23T18:25:58.451Z,6.00
2023-01-23T18:28:25.452Z,5.72
2023-01-23T18:31:03.545Z,5.22
2023-01-23T18:33:42.582Z,4.90
2023-01-23T18:36:37.980Z,5.72
2023-01-23T18:39:46.283Z,5.32
2023-01-23T18:42:22.252Z,5.95
2023-01-23T18:44:56.358Z,5.50
2023-01-23T18:47:23.309Z,5.38
2023-01-23T18:49:50.159Z,5.25
2023-01-23T18:52:27.023Z,5.40
2023-01-23T18:55:12.668Z,6.47
2023-01-23T18:58:19.437Z,5.68
2023-01-23T19:01:23.680Z,6.25
2023-01-23T19:03:52.893Z,4.97
2023-01-23T19:06:23.439Z,5.97
2023-01-23T19:08:51.715Z,5.18
2023-01-23T19:11:42.979Z,5.57
2023-01-23T19:14:40.584Z,4.43
2023-01-23T19:17:37.980Z,6.30
2023-01-23T19:20:14.324Z,6.10
2023-01-23T19:23:01.672Z,5.80
2023-01-23T19:25:29.030Z,6.28
2023-01-23T19:28:00.593Z,5.65
2023-01-23T19:30:27.902Z,6.23
2023-01-23T19:32:54.816Z,5.93
2023-01-23T19:35:22.552Z,6.90
2023-01-23T19:37:49.815Z,6.03
2023-01-23T19:40:17.091Z,7.22
2023-01-23T19:42:54.351Z,9.18
2023-01-23T19:45:25.639Z,7.97
2023-01-23T19:47:53.674Z,11.38
2023-01-23T19:50:21.788Z,14.60
2023-01-23T19:52:50.017Z,13.50
2023-01-23T19:55:31.876Z,9.90
2023-01-23T19:57:59.297Z,6.90
2023-01-23T20:00:27.885Z,13.00
2023-01-23T20:02:54.724Z,10.52
2023-01-23T20:05:22.449Z,9.45
2023-01-23T20:07:49.552Z,6.30
2023-01-23T20:10:17.166Z,6.53
2023-01-23T20:12:52.143Z,7.70
2023-01-23T20:15:21.982Z,6.35
2023-01-23T20:17:49.533Z,8.07
2023-01-23T20:20:17.094Z,5.78
2023-01-23T20:22:44.428Z,8.00
2023-01-23T20:25:15.169Z,6.65
2023-01-23T20:27:43.296Z,7.18
2023-01-23T20:30:15.927Z,5.60
2023-01-23T20:35:09.868Z,7.45
2023-01-23T20:37:36.666Z,8.05
2023-01-23T20:40:03.862Z,7.07
2023-01-23T20:42:30.628Z,6.88
2023-01-23T20:44:57.379Z,6.72
2023-01-23T20:47:24.225Z,5.90
2023-01-23T20:49:50.982Z,7.35
2023-01-23T20:52:36.331Z,6.53
2023-01-23T20:55:03.103Z,6.03
2023-01-23T20:57:49.802Z,6.72
2023-01-23T21:00:17.100Z,6.53
2023-01-23T21:02:43.841Z,5.70
2023-01-23T21:05:10.560Z,5.82
2023-01-23T21:07:37.301Z,6.72
2023-01-23T21:10:04.557Z,7.07
2023-01-23T21:12:31.382Z,6.82
2023-01-23T21:14:58.117Z,6.80
2023-01-23T21:17:24.864Z,6.95
2023-01-23T21:19:51.548Z,5.88
2023-01-23T21:22:18.252Z,6.25
2023-01-23T21:24:44.905Z,5.10
2023-01-23T21:27:13.780Z,7.05
2023-01-23T21:29:40.584Z,7.35
2023-01-23T21:32:07.364Z,6.65
2023-01-23T21:34:34.207Z,6.18
2023-01-23T21:37:01.054Z,6.65
2023-01-23T21:39:28.001Z,8.13
2023-01-23T21:41:56.144Z,6.30
2023-01-23T21:44:22.949Z,6.47
2023-01-23T21:46:50.026Z,5.60
2023-01-23T21:49:16.723Z,6.18
2023-01-23T21:51:44.644Z,4.38
2023-01-23T21:54:11.491Z,6.40
2023-01-23T21:56:38.269Z,5.97
2023-01-23T21:59:05.052Z,5.18
2023-01-23T22:01:32.013Z,6.20
2023-01-23T22:04:00.680Z,5.55
2023-01-23T22:06:27.488Z,6.15
2023-01-23T22:08:55.756Z,5.85
2023-01-23T22:11:22.696Z,6.15
2023-01-23T22:13:49.494Z,6.88
2023-01-23T22:16:16.216Z,5.05
2023-01-23T22:18:43.155Z,5.85
2023-01-23T22:21:10.421Z,6.90
2023-01-23T22:23:37.162Z,6.53
2023-01-23T22:26:08.060Z,5.75
2023-01-23T22:28:35.423Z,6.65
2023-01-23T22:31:07.793Z,6.85
2023-01-23T22:36:09.326Z,5.45
2023-01-23T22:38:36.041Z,6.22
2023-01-23T22:41:06.653Z,5.57
2023-01-23T22:43:34.604Z,5.72
2023-01-23T22:46:17.271Z,6.72
2023-01-23T22:51:23.663Z,7.93
2023-01-23T22:53:51.778Z,7.35
2023-01-23T22:56:18.505Z,7.07
2023-01-23T22:58:46.599Z,6.80
2023-01-23T23:01:13.619Z,6.93
2023-01-23T23:03:40.842Z,6.97
2023-01-23T23:06:09.204Z,6.10
2023-01-23T23:08:36.070Z,6.20
2023-01-23T23:11:04.696Z,6.18
2023-01-23T23:13:32.751Z,6.85
2023-01-23T23:16:04.156Z,6.00
2023-01-23T23:18:31.004Z,7.22
2023-01-23T23:21:03.353Z,5.28
2023-01-23T23:23:30.076Z,6.55
2023-01-23T23:25:57.648Z,7.07
2023-01-23T23:28:26.180Z,6.50
2023-01-23T23:30:53.329Z,6.45
2023-01-23T23:33:20.807Z,6.82
2023-01-23T23:35:47.507Z,8.48
2023-01-23T23:38:15.120Z,6.55
2023-01-23T23:40:42.076Z,7.15
2023-01-23T23:43:09.408Z,6.53
2023-01-23T23:45:36.207Z,8.02
2023-01-23T23:48:03.053Z,6.65
2023-01-23T23:50:32.695Z,7.00
2023-01-23T23:52:59.582Z,7.47
2023-01-23T23:55:26.330Z,6.82
2023-01-23T23:57:53.006Z,6.55
